Time;durP1;ratioP1;P1;durP2;ratioP2;P2;SDS_P1;SDS_P2;PMS_P1;PMS_P2;Temp;Humidity;BMP_temperature;BMP_pressure;BME280_temperature;BME280_humidity;BME280_pressure;Samples;Min_cycle;Max_cycle;Signal;HPM_P1;HPM_P2
2022/02/05 00:07:17;;;;;;;;;;;5.40;99.90;;;;;;8390415;28;19924;-68
2022/02/05 00:16:11;;;;;;;;;;;5.30;99.90;;;;;;8398398;28;20454;-69
2022/02/05 00:38:10;;;;;;;;;;;5.20;99.90;;;;;;8390390;28;19963;-69
2022/02/05 00:42:28;;;;;;;;;;;5.20;99.90;;;;;;8386897;28;20194;-69
2022/02/05 00:46:08;;;;;;;;;;;5.10;99.90;;;;;;8380083;28;19963;-68
2022/02/05 00:50:16;;;;;;;;;;;5.10;99.90;;;;;;8373179;28;19952;-69
2022/02/05 00:54:22;;;;;;;;;;;5.10;99.90;;;;;;8388825;28;19924;-68
2022/02/05 00:58:23;;;;;;;;;;;5.10;99.90;;;;;;8386022;28;20394;-69
2022/02/05 01:02:25;;;;;;;;;;;5.10;99.90;;;;;;8382483;28;20011;-69
2022/02/05 01:06:26;;;;;;;;;;;5.10;99.90;;;;;;8366623;28;19924;-68
2022/02/05 01:10:28;;;;;;;;;;;5.10;99.90;;;;;;8390447;28;19928;-68
2022/02/05 01:14:41;;;;;;;;;;;5.10;99.90;;;;;;8389818;28;20008;-69
2022/02/05 01:18:44;;;;;;;;;;;5.00;99.90;;;;;;8389037;28;19959;-69
2022/02/05 01:22:48;;;;;;;;;;;5.00;99.90;;;;;;8371553;28;19932;-69
2022/02/05 01:26:57;;;;;;;;;;;5.00;99.90;;;;;;8390684;28;20401;-69
2022/02/05 01:30:59;;;;;;;;;;;4.90;99.90;;;;;;8392812;28;19999;-69
2022/02/05 01:35:11;;;;;;;;;;;4.90;99.90;;;;;;8388819;28;19972;-68
2022/02/05 01:48:50;;;;;;;;;;;4.90;99.90;;;;;;8385843;28;19921;-69
2022/02/05 01:53:02;;;;;;;;;;;4.80;99.90;;;;;;8383811;28;20272;-69
2022/02/05 01:57:02;;;;;;;;;;;4.80;99.90;;;;;;8385839;28;19924;-68
2022/02/05 02:05:33;;;;;;;;;;;4.70;99.90;;;;;;8391198;28;20340;-68
2022/02/05 02:22:15;;;;;;;;;;;4.70;99.90;;;;;;8396786;28;19967;-69
2022/02/05 02:26:33;;;;;;;;;;;4.70;99.90;;;;;;8396490;28;19999;-68
2022/02/05 02:30:40;;;;;;;;;;;4.60;99.90;;;;;;8397539;28;20026;-69
2022/02/05 02:34:47;;;;;;;;;;;4.60;99.90;;;;;;8388866;28;19959;-68
2022/02/05 02:38:53;;;;;;;;;;;4.60;99.90;;;;;;8399779;28;19967;-69
2022/02/05 02:43:02;;;;;;;;;;;4.60;99.90;;;;;;8384175;28;19928;-69
2022/02/05 02:47:04;;;;;;;;;;;4.50;99.90;;;;;;8390997;28;20410;-69
2022/02/05 02:59:47;;;;;;;;;;;4.50;99.90;;;;;;8391184;28;19960;-68
2022/02/05 03:03:49;;;;;;;;;;;4.40;99.90;;;;;;8397921;28;19964;-68
2022/02/05 03:07:51;;;;;;;;;;;4.40;99.90;;;;;;8387732;28;20388;-68
2022/02/05 03:11:52;;;;;;;;;;;4.40;99.90;;;;;;8396016;28;19924;-69
2022/02/05 03:15:54;;;;;;;;;;;4.30;99.90;;;;;;8377859;28;19931;-68
2022/02/05 03:19:57;;;;;;;;;;;4.30;99.90;;;;;;8392472;28;20019;-69
2022/02/05 03:23:59;;;;;;;;;;;4.20;99.90;;;;;;8393772;28;20406;-69
2022/02/05 03:28:01;;;;;;;;;;;4.20;99.90;;;;;;8374551;28;20015;-68
2022/02/05 03:32:03;;;;;;;;;;;4.10;99.90;;;;;;8395433;28;19979;-69
2022/02/05 03:36:04;;;;;;;;;;;4.00;99.90;;;;;;8387783;28;19925;-69
2022/02/05 03:40:06;;;;;;;;;;;4.10;99.90;;;;;;8389378;28;20372;-68
2022/02/05 03:44:08;;;;;;;;;;;4.10;99.90;;;;;;8392313;28;20018;-69
2022/02/05 03:48:09;;;;;;;;;;;4.00;99.90;;;;;;8376096;28;20303;-68
2022/02/05 03:52:11;;;;;;;;;;;4.00;99.90;;;;;;8386764;28;19959;-68
2022/02/05 03:56:13;;;;;;;;;;;4.10;99.90;;;;;;8390402;28;19963;-68
2022/02/05 04:00:14;;;;;;;;;;;4.10;99.90;;;;;;8390227;28;19940;-69
2022/02/05 04:04:16;;;;;;;;;;;4.10;99.90;;;;;;8386111;28;20437;-68
2022/02/05 04:08:18;;;;;;;;;;;4.20;99.90;;;;;;8386986;28;20305;-68
2022/02/05 04:16:40;;;;;;;;;;;4.10;99.90;;;;;;8391140;28;20303;-68
2022/02/05 04:20:41;;;;;;;;;;;4.10;99.90;;;;;;8374287;28;19952;-68
2022/02/05 04:24:43;;;;;;;;;;;4.00;99.90;;;;;;8372501;28;19959;-68
2022/02/05 04:28:45;;;;;;;;;;;3.90;99.90;;;;;;8394698;28;20122;-68
2022/02/05 04:32:47;;;;;;;;;;;3.80;99.90;;;;;;8396674;28;20044;-68
2022/02/05 04:36:49;;;;;;;;;;;3.80;99.90;;;;;;8373759;28;20330;-68
2022/02/05 04:53:54;;;;;;;;;;;3.90;99.90;;;;;;8393806;28;19935;-68
2022/02/05 05:11:21;;;;;;;;;;;4.10;99.90;;;;;;8390354;28;19971;-68
2022/02/05 05:23:27;;;;;;;;;;;4.10;99.90;;;;;;8390645;28;19932;-68
2022/02/05 05:27:30;;;;;;;;;;;4.10;99.90;;;;;;8394751;28;19928;-68
2022/02/05 05:31:32;;;;;;;;;;;4.00;99.90;;;;;;8396435;28;20003;-68
2022/02/05 05:35:34;;;;;;;;;;;3.90;99.90;;;;;;8391166;28;19971;-68
2022/02/05 05:39:37;;;;;;;;;;;3.90;99.90;;;;;;8372360;28;19979;-68
2022/02/05 05:48:27;;;;;;;;;;;3.80;99.90;;;;;;8395578;28;19925;-69
2022/02/05 05:52:11;;;;;;;;;;;3.70;99.90;;;;;;8381805;28;19929;-68
2022/02/05 05:56:13;;;;;;;;;;;3.60;99.90;;;;;;8384763;28;19968;-68
2022/02/05 06:00:15;;;;;;;;;;;3.50;99.90;;;;;;8382913;28;20413;-69
2022/02/05 06:04:17;;;;;;;;;;;3.40;99.90;;;;;;8377592;28;20024;-69
2022/02/05 06:08:19;;;;;;;;;;;3.30;99.90;;;;;;8377283;28;20291;-68
2022/02/05 06:12:20;;;;;;;;;;;3.20;99.90;;;;;;8390542;28;19960;-69
2022/02/05 06:16:29;;;;;;;;;;;3.10;99.90;;;;;;8396097;28;20016;-68
2022/02/05 06:20:30;;;;;;;;;;;3.10;99.90;;;;;;8371974;28;19929;-69
2022/02/05 06:24:32;;;;;;;;;;;3.10;99.90;;;;;;8378211;28;20452;-69
2022/02/05 06:28:33;;;;;;;;;;;3.10;99.90;;;;;;8375987;28;20023;-69
2022/02/05 06:32:35;;;;;;;;;;;3.20;99.90;;;;;;8367244;28;19947;-68
2022/02/05 06:36:37;;;;;;;;;;;3.30;99.90;;;;;;8382504;28;19972;-69
2022/02/05 06:40:39;;;;;;;;;;;3.30;99.90;;;;;;8398706;28;20008;-69
2022/02/05 06:44:45;;;;;;;;;;;3.40;99.90;;;;;;8390699;28;20391;-68
2022/02/05 06:48:52;;;;;;;;;;;3.30;99.90;;;;;;8373729;28;19948;-68
2022/02/05 06:52:54;;;;;;;;;;;3.30;99.90;;;;;;8388955;28;20392;-69
2022/02/05 06:56:56;;;;;;;;;;;3.30;99.90;;;;;;8393487;28;20047;-68
2022/02/05 07:00:57;;;;;;;;;;;3.30;99.90;;;;;;8397465;28;20015;-68
2022/02/05 07:04:59;;;;;;;;;;;3.40;99.90;;;;;;8394571;28;20288;-68
2022/02/05 07:09:03;;;;;;;;;;;3.40;99.90;;;;;;8383253;28;20428;-68
2022/02/05 07:13:13;;;;;;;;;;;3.40;99.90;;;;;;8390670;28;20011;-68
2022/02/05 07:17:25;;;;;;;;;;;3.50;99.90;;;;;;8386761;28;19932;-68
2022/02/05 07:21:38;;;;;;;;;;;3.50;99.90;;;;;;8397452;28;20434;-68
2022/02/05 07:29:59;;;;;;;;;;;3.70;99.90;;;;;;8382507;28;20024;-68
2022/02/05 07:34:31;;;;;;;;;;;3.70;99.90;;;;;;8384966;28;19924;-68
2022/02/05 07:38:33;;;;;;;;;;;3.70;99.90;;;;;;8394970;28;19968;-68
2022/02/05 07:42:34;;;;;;;;;;;3.80;99.90;;;;;;8395376;28;19983;-68
2022/02/05 07:46:36;;;;;;;;;;;3.80;99.90;;;;;;8373652;28;19978;-68
2022/02/05 07:50:39;;;;;;;;;;;3.80;99.90;;;;;;8386261;28;19924;-68
2022/02/05 07:54:40;;;;;;;;;;;3.80;99.90;;;;;;8388287;28;19931;-68
2022/02/05 07:58:42;;;;;;;;;;;3.80;99.90;;;;;;8374235;28;19931;-68
2022/02/05 08:02:43;;;;;;;;;;;3.80;99.90;;;;;;8371341;28;19924;-68
2022/02/05 08:06:46;;;;;;;;;;;3.90;99.90;;;;;;8374032;28;19939;-68
2022/02/05 08:11:00;;;;;;;;;;;4.00;99.90;;;;;;8391658;28;19924;-68
2022/02/05 08:20:06;;;;;;;;;;;4.00;99.90;;;;;;8386592;28;19923;-68
2022/02/05 08:24:08;;;;;;;;;;;4.10;99.90;;;;;;8390802;28;20383;-68
2022/02/05 08:28:09;;;;;;;;;;;4.10;99.90;;;;;;8399187;28;19968;-68
2022/02/05 08:32:11;;;;;;;;;;;4.20;99.90;;;;;;8370155;28;20333;-68
2022/02/05 08:36:13;;;;;;;;;;;4.30;99.90;;;;;;8387824;28;20023;-69
2022/02/05 08:40:16;;;;;;;;;;;4.40;99.90;;;;;;8373422;28;19967;-68
2022/02/05 08:44:18;;;;;;;;;;;4.40;99.90;;;;;;8383893;28;20240;-68
2022/02/05 08:48:20;;;;;;;;;;;4.50;99.90;;;;;;8388287;28;19974;-68
2022/02/05 08:52:21;;;;;;;;;;;4.60;99.90;;;;;;8393394;28;19971;-69
2022/02/05 08:56:23;;;;;;;;;;;4.70;99.90;;;;;;8391279;28;20362;-68
2022/02/05 09:00:27;;;;;;;;;;;4.70;99.90;;;;;;8374577;28;20472;-69
2022/02/05 09:04:37;;;;;;;;;;;4.90;99.90;;;;;;8371417;28;20011;-69
2022/02/05 09:08:48;;;;;;;;;;;5.00;99.90;;;;;;8389630;28;20038;-68
2022/02/05 09:17:15;;;;;;;;;;;5.30;99.90;;;;;;8381125;28;19994;-68
2022/02/05 09:21:18;;;;;;;;;;;5.40;99.90;;;;;;8385616;28;19925;-68
2022/02/05 09:25:21;;;;;;;;;;;5.50;99.90;;;;;;8385676;28;19964;-69
2022/02/05 09:29:23;;;;;;;;;;;5.60;99.90;;;;;;8389121;28;19932;-68
2022/02/05 09:33:25;;;;;;;;;;;5.70;99.90;;;;;;8396758;28;20015;-68
2022/02/05 09:37:27;;;;;;;;;;;5.90;99.90;;;;;;8380738;28;19975;-68
2022/02/05 09:41:29;;;;;;;;;;;6.10;99.90;;;;;;8388903;28;20537;-68
2022/02/05 09:45:33;;;;;;;;;;;6.30;99.90;;;;;;8388484;28;19963;-68
2022/02/05 09:49:36;;;;;;;;;;;6.50;99.90;;;;;;8386924;28;19924;-68
2022/02/05 09:53:38;;;;;;;;;;;6.80;99.90;;;;;;8386034;28;20039;-68
2022/02/05 09:57:39;;;;;;;;;;;6.90;99.90;;;;;;8384241;28;20363;-68
2022/02/05 10:01:41;;;;;;;;;;;7.10;99.90;;;;;;8376661;28;19935;-68
2022/02/05 10:06:02;;;;;;;;;;;7.00;99.90;;;;;;8385993;28;19924;-68
2022/02/05 10:10:05;;;;;;;;;;;6.90;99.90;;;;;;8385002;28;19929;-68
2022/02/05 10:14:13;;;;;;;;;;;7.00;99.90;;;;;;8368307;28;20429;-68
2022/02/05 10:18:22;;;;;;;;;;;7.10;99.90;;;;;;8385362;28;19924;-69
2022/02/05 10:22:33;;;;;;;;;;;7.20;99.90;;;;;;8380649;28;19967;-68
2022/02/05 10:26:39;;;;;;;;;;;7.20;99.90;;;;;;8390847;28;19978;-68
2022/02/05 10:30:43;;;;;;;;;;;7.30;99.90;;;;;;8393870;28;19979;-69
2022/02/05 10:35:08;;;;;;;;;;;7.70;99.90;;;;;;8375614;28;20007;-69
2022/02/05 10:39:51;;;;;;;;;;;7.90;99.90;;;;;;8390811;28;20180;-68
2022/02/05 10:43:32;;;;;;;;;;;8.00;99.90;;;;;;8382638;28;19979;-69
2022/02/05 10:47:46;;;;;;;;;;;8.30;99.90;;;;;;8376335;28;19928;-68
2022/02/05 10:51:58;;;;;;;;;;;8.40;99.90;;;;;;8381712;28;20008;-69
2022/02/05 11:08:45;;;;;;;;;;;8.40;99.90;;;;;;8390393;28;19986;-68
2022/02/05 11:12:48;;;;;;;;;;;8.30;99.90;;;;;;8384588;28;19986;-69
2022/02/05 11:20:52;;;;;;;;;;;8.20;99.90;;;;;;8391691;28;19968;-68
2022/02/05 11:24:53;;;;;;;;;;;8.30;99.90;;;;;;8374323;28;20415;-69
2022/02/05 11:28:56;;;;;;;;;;;8.50;99.90;;;;;;8378410;28;19940;-69
2022/02/05 11:33:02;;;;;;;;;;;8.90;99.90;;;;;;8398001;28;19983;-69
2022/02/05 11:37:09;;;;;;;;;;;9.00;99.90;;;;;;8373487;28;20364;-71
2022/02/05 11:41:27;;;;;;;;;;;8.80;99.90;;;;;;8370718;28;19987;-71
2022/02/05 11:45:28;;;;;;;;;;;9.00;99.90;;;;;;8370461;28;20387;-71
2022/02/05 11:49:49;;;;;;;;;;;9.50;99.90;;;;;;8385523;28;19924;-71
2022/02/05 11:54:00;;;;;;;;;;;9.80;99.90;;;;;;8396650;28;20002;-72
2022/02/05 11:58:02;;;;;;;;;;;10.40;99.90;;;;;;8386897;28;19940;-71
2022/02/05 12:02:19;;;;;;;;;;;10.80;99.90;;;;;;8375366;28;20011;-71
2022/02/05 12:06:21;;;;;;;;;;;11.00;99.90;;;;;;8375190;28;19925;-71
2022/02/05 12:10:36;;;;;;;;;;;10.60;99.90;;;;;;8386442;28;19967;-71
2022/02/05 12:14:37;;;;;;;;;;;10.70;99.90;;;;;;8389869;28;19986;-71
2022/02/05 12:19:27;;;;;;;;;;;10.60;99.90;;;;;;8390863;28;20023;-71
2022/02/05 12:27:48;;;;;;;;;;;9.60;99.90;;;;;;8344716;28;19924;-70
2022/02/05 12:31:50;;;;;;;;;;;9.80;99.90;;;;;;8392756;28;20387;-71
2022/02/05 12:35:53;;;;;;;;;;;10.00;99.90;;;;;;8384498;28;20124;-71
2022/02/05 12:39:57;;;;;;;;;;;10.10;99.90;;;;;;8387366;28;20012;-71
2022/02/05 12:44:03;;;;;;;;;;;9.70;99.90;;;;;;8392352;28;20389;-71
2022/02/05 12:48:08;;;;;;;;;;;9.60;99.90;;;;;;8374449;28;20401;-71
2022/02/05 12:52:13;;;;;;;;;;;9.50;99.90;;;;;;8389332;28;19951;-71
2022/02/05 12:56:16;;;;;;;;;;;9.60;99.90;;;;;;8394108;28;19959;-71
2022/02/05 13:00:20;;;;;;;;;;;9.60;99.90;;;;;;8390626;28;19979;-71
2022/02/05 13:04:23;;;;;;;;;;;9.40;99.90;;;;;;8377682;28;20038;-71
2022/02/05 13:08:26;;;;;;;;;;;9.30;99.90;;;;;;8379814;28;19939;-71
2022/02/05 13:12:31;;;;;;;;;;;9.20;99.90;;;;;;8391878;28;19972;-71
2022/02/05 13:16:36;;;;;;;;;;;9.10;99.90;;;;;;8387441;28;19925;-71
2022/02/05 13:37:49;;;;;;;;;;;9.50;99.90;;;;;;8381486;28;19967;-70
2022/02/05 13:42:17;;;;;;;;;;;9.50;99.90;;;;;;8383187;28;19924;-70
2022/02/05 13:46:18;;;;;;;;;;;9.30;99.90;;;;;;8382342;28;19932;-71
2022/02/05 13:50:19;;;;;;;;;;;9.00;99.90;;;;;;8379309;28;19994;-71
2022/02/05 13:54:31;;;;;;;;;;;8.90;99.90;;;;;;8367414;28;19947;-70
2022/02/05 13:58:39;;;;;;;;;;;8.80;99.90;;;;;;8375780;28;20368;-71
2022/02/05 14:02:42;;;;;;;;;;;8.80;99.90;;;;;;8367731;28;20028;-71
2022/02/05 14:06:51;;;;;;;;;;;8.70;99.90;;;;;;8399693;28;19925;-70
2022/02/05 14:11:00;;;;;;;;;;;8.50;99.90;;;;;;8409825;28;19968;-70
2022/02/05 14:15:03;;;;;;;;;;;8.50;99.90;;;;;;8398962;28;19971;-70
2022/02/05 14:19:06;;;;;;;;;;;8.40;99.90;;;;;;8391959;28;19928;-70
2022/02/05 14:23:09;;;;;;;;;;;8.30;99.90;;;;;;8397843;28;19924;-71
2022/02/05 14:27:15;;;;;;;;;;;8.30;99.90;;;;;;8375912;28;19924;-71
2022/02/05 14:43:50;;;;;;;;;;;8.30;99.90;;;;;;8395423;28;19967;-70
2022/02/05 14:47:52;;;;;;;;;;;8.30;99.90;;;;;;8396929;28;19928;-69
2022/02/05 14:51:56;;;;;;;;;;;8.30;99.90;;;;;;8402240;28;19975;-70
2022/02/05 14:55:58;;;;;;;;;;;8.20;99.90;;;;;;8394556;28;20376;-70
2022/02/05 15:00:00;;;;;;;;;;;8.30;99.90;;;;;;8393913;28;19931;-71
2022/02/05 15:04:03;;;;;;;;;;;8.30;99.90;;;;;;8389329;28;19968;-70
2022/02/05 15:08:04;;;;;;;;;;;8.20;99.90;;;;;;8389161;28;20011;-70
2022/02/05 15:12:06;;;;;;;;;;;8.20;99.90;;;;;;8389800;28;20396;-70
2022/02/05 15:16:10;;;;;;;;;;;8.20;99.90;;;;;;8364615;28;19940;-70
2022/02/05 15:20:13;;;;;;;;;;;8.20;99.90;;;;;;8389392;28;20018;-70
2022/02/05 15:24:15;;;;;;;;;;;8.20;99.90;;;;;;8390732;28;19924;-70
2022/02/05 15:28:17;;;;;;;;;;;8.20;99.90;;;;;;8386139;28;20356;-71
2022/02/05 15:32:19;;;;;;;;;;;8.10;99.90;;;;;;8379611;28;19939;-69
2022/02/05 15:36:27;;;;;;;;;;;8.10;99.90;;;;;;8385691;28;20391;-72
2022/02/05 15:44:51;;;;;;;;;;;8.10;99.90;;;;;;8388142;28;20014;-70
2022/02/05 15:48:53;;;;;;;;;;;8.10;99.90;;;;;;8394827;28;19964;-70
2022/02/05 15:52:55;;;;;;;;;;;8.00;99.90;;;;;;8374365;28;20399;-71
2022/02/05 15:57:22;;;;;;;;;;;8.00;99.90;;;;;;8361980;28;19974;-71
2022/02/05 16:01:24;;;;;;;;;;;8.00;99.90;;;;;;8356224;28;19971;-71
2022/02/05 16:05:25;;;;;;;;;;;8.00;99.90;;;;;;8356371;28;20217;-71
2022/02/05 16:09:27;;;;;;;;;;;8.00;99.90;;;;;;8355173;28;20004;-71
2022/02/05 16:13:28;;;;;;;;;;;8.00;99.90;;;;;;8357492;28;20020;-71
2022/02/05 16:17:30;;;;;;;;;;;8.00;99.90;;;;;;8341832;28;20334;-71
2022/02/05 16:21:32;;;;;;;;;;;8.00;99.90;;;;;;8354708;28;19928;-70
2022/02/05 16:25:33;;;;;;;;;;;8.00;99.90;;;;;;8360556;28;19925;-70
2022/02/05 16:29:35;;;;;;;;;;;8.00;99.90;;;;;;8336120;28;20387;-70
2022/02/05 16:33:39;;;;;;;;;;;8.00;99.90;;;;;;8342695;28;19928;-70
2022/02/05 16:37:42;;;;;;;;;;;8.00;99.90;;;;;;8376297;28;19935;-71
2022/02/05 16:41:44;;;;;;;;;;;8.00;99.90;;;;;;8359536;28;19964;-71
2022/02/05 16:45:47;;;;;;;;;;;8.00;99.90;;;;;;8356409;28;21883;-70
2022/02/05 16:49:49;;;;;;;;;;;8.00;99.90;;;;;;8367829;28;19960;-71
2022/02/05 16:53:51;;;;;;;;;;;8.00;99.90;;;;;;8363197;28;20366;-70
2022/02/05 16:57:52;;;;;;;;;;;8.00;99.90;;;;;;8340741;28;19939;-70
2022/02/05 17:01:55;;;;;;;;;;;8.00;99.90;;;;;;8361763;28;20028;-71
2022/02/05 17:05:56;;;;;;;;;;;8.00;99.90;;;;;;8358178;28;20015;-71
2022/02/05 17:09:59;;;;;;;;;;;8.00;99.90;;;;;;8356849;28;24187;-71
2022/02/05 17:14:00;;;;;;;;;;;8.00;99.90;;;;;;8367639;28;19932;-71
2022/02/05 17:22:06;;;;;;;;;;;8.00;99.90;;;;;;8354805;28;19961;-71
2022/02/05 17:26:12;;;;;;;;;;;8.00;99.90;;;;;;8351448;28;20418;-71
2022/02/05 17:30:13;;;;;;;;;;;8.00;99.90;;;;;;8356018;28;20046;-71
2022/02/05 17:34:15;;;;;;;;;;;8.00;99.90;;;;;;8356797;28;20016;-71
2022/02/05 17:38:20;;;;;;;;;;;8.10;99.90;;;;;;8338895;28;19964;-71
2022/02/05 17:42:22;;;;;;;;;;;8.10;99.90;;;;;;8346129;28;20023;-71
2022/02/05 17:46:24;;;;;;;;;;;8.10;99.90;;;;;;8356216;28;20391;-70
2022/02/05 17:50:26;;;;;;;;;;;8.10;99.90;;;;;;8355231;28;20303;-71
2022/02/05 17:54:28;;;;;;;;;;;8.10;99.90;;;;;;8343118;28;19931;-71
2022/02/05 17:58:40;;;;;;;;;;;8.10;99.90;;;;;;8353923;28;19935;-71
2022/02/05 18:02:42;;;;;;;;;;;8.10;99.90;;;;;;8354737;28;19931;-71
2022/02/05 18:06:47;;;;;;;;;;;8.10;99.90;;;;;;8357681;28;20339;-71
2022/02/05 18:15:04;;;;;;;;;;;8.10;99.90;;;;;;8353918;28;19932;-71
2022/02/05 18:19:06;;;;;;;;;;;7.70;99.90;;;;;;8354067;28;19940;-71
2022/02/05 18:23:08;;;;;;;;;;;7.50;99.90;;;;;;8352797;28;19983;-71
2022/02/05 18:27:10;;;;;;;;;;;7.30;99.90;;;;;;8365131;28;19935;-71
2022/02/05 18:31:12;;;;;;;;;;;7.10;99.90;;;;;;8373270;28;19931;-71
2022/02/05 18:35:14;;;;;;;;;;;7.00;99.90;;;;;;8359533;28;20027;-71
2022/02/05 18:39:22;;;;;;;;;;;7.00;99.90;;;;;;8359214;28;19934;-71
2022/02/05 18:43:26;;;;;;;;;;;6.90;99.90;;;;;;8356027;28;20023;-70
2022/02/05 18:47:28;;;;;;;;;;;6.80;99.90;;;;;;8349131;28;19925;-70
2022/02/05 18:51:29;;;;;;;;;;;6.80;99.90;;;;;;8357214;28;20036;-70
2022/02/05 18:55:31;;;;;;;;;;;6.70;99.90;;;;;;8358363;28;19929;-70
2022/02/05 18:59:34;;;;;;;;;;;6.70;99.90;;;;;;8356578;28;20007;-70
2022/02/05 19:10:07;;;;;;;;;;;6.70;99.90;;;;;;8357501;28;19935;-70
2022/02/05 19:20:47;;;;;;;;;;;6.70;99.90;;;;;;8355619;28;19960;-70
2022/02/05 19:24:49;;;;;;;;;;;6.70;99.90;;;;;;8362016;28;19982;-70
2022/02/05 19:28:50;;;;;;;;;;;6.70;99.90;;;;;;8358148;28;20035;-70
2022/02/05 19:32:52;;;;;;;;;;;6.70;99.90;;;;;;8369927;28;20043;-70
2022/02/05 19:36:54;;;;;;;;;;;6.70;99.90;;;;;;8340552;28;20019;-70
2022/02/05 19:40:57;;;;;;;;;;;6.70;99.90;;;;;;8361184;28;20011;-71
2022/02/05 19:45:00;;;;;;;;;;;6.60;99.90;;;;;;8360537;28;20031;-71
2022/02/05 19:49:01;;;;;;;;;;;6.60;99.90;;;;;;8345204;28;20023;-71
2022/02/05 19:53:03;;;;;;;;;;;6.60;99.90;;;;;;8366849;28;20411;-70
2022/02/05 19:57:05;;;;;;;;;;;6.70;99.90;;;;;;8366037;28;20023;-70
2022/02/05 20:01:06;;;;;;;;;;;6.70;99.90;;;;;;8364110;28;19928;-71
2022/02/05 20:05:12;;;;;;;;;;;6.70;99.90;;;;;;8363896;28;19933;-70
2022/02/05 20:09:14;;;;;;;;;;;6.70;99.90;;;;;;8364605;28;19985;-70
2022/02/05 20:13:15;;;;;;;;;;;6.80;99.90;;;;;;8362742;28;20015;-70
2022/02/05 20:17:17;;;;;;;;;;;6.80;99.90;;;;;;8367822;28;19929;-70
2022/02/05 20:21:19;;;;;;;;;;;6.80;99.90;;;;;;8374230;28;19967;-70
2022/02/05 20:25:22;;;;;;;;;;;6.90;99.90;;;;;;8362005;28;20022;-70
2022/02/05 20:29:23;;;;;;;;;;;6.90;99.90;;;;;;8363970;28;20031;-70
2022/02/05 20:33:29;;;;;;;;;;;6.90;99.90;;;;;;8375537;28;19929;-71
2022/02/05 20:37:30;;;;;;;;;;;7.00;99.90;;;;;;8367282;28;19925;-70
2022/02/05 20:41:32;;;;;;;;;;;7.00;99.90;;;;;;8361179;28;20392;-70
2022/02/05 20:45:34;;;;;;;;;;;6.90;99.90;;;;;;8344855;28;20019;-71
2022/02/05 20:49:42;;;;;;;;;;;7.00;99.90;;;;;;8364503;28;20039;-70
2022/02/05 20:54:01;;;;;;;;;;;7.00;99.90;;;;;;8364225;28;20046;-71
2022/02/05 20:58:03;;;;;;;;;;;7.00;99.90;;;;;;8361566;28;20268;-70
2022/02/05 21:02:04;;;;;;;;;;;7.00;99.90;;;;;;8345686;28;20134;-70
2022/02/05 21:06:06;;;;;;;;;;;7.00;99.90;;;;;;8366518;28;20019;-71
2022/02/05 21:10:08;;;;;;;;;;;7.00;99.90;;;;;;8363626;28;19938;-71
2022/02/05 21:14:10;;;;;;;;;;;7.00;99.90;;;;;;8358316;28;19929;-71
2022/02/05 21:18:11;;;;;;;;;;;7.00;99.90;;;;;;8357241;28;20027;-71
2022/02/05 21:22:16;;;;;;;;;;;7.00;99.90;;;;;;8344140;28;20429;-71
2022/02/05 21:26:19;;;;;;;;;;;7.00;99.90;;;;;;8352279;28;19971;-71
2022/02/05 21:30:25;;;;;;;;;;;7.00;99.90;;;;;;8358169;28;20515;-71
2022/02/05 21:34:44;;;;;;;;;;;7.00;99.90;;;;;;8340330;28;20028;-71
2022/02/05 21:38:46;;;;;;;;;;;7.00;99.90;;;;;;8359738;28;19933;-71
2022/02/05 21:42:47;;;;;;;;;;;7.00;99.90;;;;;;8341259;28;20375;-70
2022/02/05 21:46:49;;;;;;;;;;;7.00;99.90;;;;;;8359857;28;20018;-71
2022/02/05 21:50:53;;;;;;;;;;;7.00;99.90;;;;;;8355655;28;19929;-70
2022/02/05 21:55:17;;;;;;;;;;;7.00;99.90;;;;;;8354760;28;19967;-71
2022/02/05 21:59:19;;;;;;;;;;;7.00;99.90;;;;;;8353686;28;20387;-71
2022/02/05 22:03:23;;;;;;;;;;;7.00;99.90;;;;;;8370018;28;19931;-71
2022/02/05 22:07:25;;;;;;;;;;;7.00;99.90;;;;;;8378666;28;19974;-71
2022/02/05 22:11:27;;;;;;;;;;;7.00;99.90;;;;;;8364916;28;19952;-71
2022/02/05 22:15:29;;;;;;;;;;;7.00;99.90;;;;;;8374368;28;20036;-71
2022/02/05 22:19:30;;;;;;;;;;;7.00;99.90;;;;;;8383909;28;20344;-72
2022/02/05 22:23:32;;;;;;;;;;;7.00;99.90;;;;;;8382546;28;19925;-71
2022/02/05 22:27:33;;;;;;;;;;;7.00;99.90;;;;;;8396176;28;19932;-71
2022/02/05 22:31:35;;;;;;;;;;;7.00;99.90;;;;;;8405006;28;19929;-71
2022/02/05 22:35:39;;;;;;;;;;;7.00;99.90;;;;;;8390419;28;19932;-71
2022/02/05 22:39:41;;;;;;;;;;;7.00;99.90;;;;;;8391093;28;19936;-71
2022/02/05 22:43:43;;;;;;;;;;;7.00;99.90;;;;;;8389007;28;20360;-71
2022/02/05 22:47:44;;;;;;;;;;;7.00;99.90;;;;;;8389344;28;19925;-72
2022/02/05 22:51:48;;;;;;;;;;;7.00;99.90;;;;;;8388698;28;19932;-72
2022/02/05 22:55:50;;;;;;;;;;;7.00;99.90;;;;;;8395540;28;19943;-72
2022/02/05 22:59:51;;;;;;;;;;;7.10;99.90;;;;;;8392779;28;19967;-72
2022/02/05 23:03:54;;;;;;;;;;;7.10;99.90;;;;;;8389190;28;19972;-72
2022/02/05 23:07:56;;;;;;;;;;;7.10;99.90;;;;;;8392529;28;19942;-72
2022/02/05 23:16:54;;;;;;;;;;;7.20;99.90;;;;;;8382238;28;20368;-72
2022/02/05 23:47:06;;;;;;;;;;;7.30;99.90;;;;;;8346808;28;19956;-73
2022/02/05 23:51:08;;;;;;;;;;;7.30;99.90;;;;;;8392315;28;20270;-73
2022/02/05 23:55:09;;;;;;;;;;;7.30;99.90;;;;;;8386958;28;19995;-73
2022/02/05 23:59:11;;;;;;;;;;;7.30;99.90;;;;;;8385774;28;19929;-73
